Time;durP1;ratioP1;P1;durP2;ratioP2;P2;SDS_P1;SDS_P2;PMS_P1;PMS_P2;Temp;Humidity;BMP_temperature;BMP_pressure;BME280_temperature;BME280_humidity;BME280_pressure;Samples;Min_cycle;Max_cycle;Signal;HPM_P1;HPM_P2
2021/03/24 00:01:09;;;;;;;;;;;;;;;0.09;100.00;92704.81;5011488;28;19928;-77
2021/03/24 00:03:35;;;;;;;;;;;;;;;0.10;100.00;92701.34;5011484;28;19921;-77
2021/03/24 00:06:01;;;;;;;;;;;;;;;0.12;100.00;92685.06;5011471;28;19931;-77
2021/03/24 00:08:27;;;;;;;;;;;;;;;0.17;100.00;92684.59;5011578;28;19928;-77
2021/03/24 00:10:53;;;;;;;;;;;;;;;0.17;100.00;92681.25;5011925;28;19925;-77
2021/03/24 00:13:21;;;;;;;;;;;;;;;0.13;100.00;92676.53;5011525;28;19925;-77
2021/03/24 00:15:47;;;;;;;;;;;;;;;0.15;100.00;92675.59;5011627;28;19921;-77
2021/03/24 00:18:13;;;;;;;;;;;;;;;0.10;100.00;92671.03;5011209;28;19925;-77
2021/03/24 00:20:40;;;;;;;;;;;;;;;0.16;100.00;92682.22;5011364;28;19928;-77
2021/03/24 00:23:07;;;;;;;;;;;;;;;0.16;100.00;92677.16;5011020;28;19925;-77
2021/03/24 00:25:33;;;;;;;;;;;;;;;0.15;100.00;92678.91;5005844;28;19938;-77
2021/03/24 00:27:59;;;;;;;;;;;;;;;0.16;100.00;92680.50;4989730;28;19922;-78
2021/03/24 00:30:27;;;;;;;;;;;;;;;0.13;100.00;92676.53;4990682;28;19925;-77
2021/03/24 00:32:53;;;;;;;;;;;;;;;0.16;100.00;92679.69;4991444;28;19972;-77
2021/03/24 00:35:19;;;;;;;;;;;;;;;0.16;100.00;92672.91;4991199;28;19929;-77
2021/03/24 00:37:45;;;;;;;;;;;;;;;0.15;100.00;92673.88;4991150;28;20434;-77
2021/03/24 00:40:14;;;;;;;;;;;;;;;0.19;100.00;92674.34;4991723;28;19958;-78
2021/03/24 00:42:40;;;;;;;;;;;;;;;0.21;100.00;92672.44;4991039;28;19925;-77
2021/03/24 00:45:07;;;;;;;;;;;;;;;0.29;100.00;92676.69;4991285;28;19944;-77
2021/03/24 00:47:34;;;;;;;;;;;;;;;0.25;100.00;92682.06;4989236;28;20356;-77
2021/03/24 00:50:00;;;;;;;;;;;;;;;0.19;100.00;92679.38;4989427;28;19929;-77
2021/03/24 00:52:27;;;;;;;;;;;;;;;0.06;100.00;92684.91;5009139;28;19926;-77
2021/03/24 00:54:53;;;;;;;;;;;;;;;-0.15;100.00;92674.34;5009732;28;19921;-77
2021/03/24 00:57:19;;;;;;;;;;;;;;;-0.41;100.00;92677.78;5010831;28;19921;-77
2021/03/24 00:59:45;;;;;;;;;;;;;;;-0.46;100.00;92676.69;5010371;28;19925;-77
2021/03/24 01:02:11;;;;;;;;;;;;;;;-0.60;100.00;92670.50;5009433;28;20383;-76
2021/03/24 01:04:38;;;;;;;;;;;;;;;-0.77;100.00;92672.19;5010137;28;19921;-77
2021/03/24 01:07:04;;;;;;;;;;;;;;;-0.79;100.00;92666.53;5010064;28;19925;-76
2021/03/24 01:09:31;;;;;;;;;;;;;;;-0.83;100.00;92664.28;5010154;28;19925;-76
2021/03/24 01:11:57;;;;;;;;;;;;;;;-0.79;100.00;92666.53;5010248;28;19921;-77
2021/03/24 01:14:23;;;;;;;;;;;;;;;-0.83;100.00;92668.56;5010159;28;19972;-76
2021/03/24 01:16:49;;;;;;;;;;;;;;;-0.77;100.00;92664.63;5010342;28;19922;-76
2021/03/24 01:19:15;;;;;;;;;;;;;;;-0.76;100.00;92659.44;5009742;28;19993;-76
2021/03/24 01:21:42;;;;;;;;;;;;;;;-0.81;100.00;92661.63;5010378;28;19925;-76
2021/03/24 01:24:08;;;;;;;;;;;;;;;-0.87;100.00;92659.72;5010218;28;19921;-76
2021/03/24 01:26:34;;;;;;;;;;;;;;;-0.73;100.00;92656.63;5010096;28;19925;-76
2021/03/24 01:29:00;;;;;;;;;;;;;;;-0.71;100.00;92651.41;5010007;28;19922;-76
2021/03/24 01:31:27;;;;;;;;;;;;;;;-0.88;100.00;92640.50;5010023;28;20379;-76
2021/03/24 01:33:53;;;;;;;;;;;;;;;-1.04;100.00;92643.75;5010296;28;20293;-76
2021/03/24 01:36:20;;;;;;;;;;;;;;;-0.99;100.00;92642.34;5010281;28;19921;-76
2021/03/24 01:38:47;;;;;;;;;;;;;;;-0.97;100.00;92639.69;5009891;28;19932;-76
2021/03/24 01:41:13;;;;;;;;;;;;;;;-0.89;100.00;92636.41;5010237;28;20337;-76
2021/03/24 01:43:39;;;;;;;;;;;;;;;-0.76;100.00;92640.97;5009761;28;19925;-76
2021/03/24 01:46:20;;;;;;;;;;;;;;;-0.69;100.00;92634.41;5009885;28;19929;-77
2021/03/24 01:48:47;;;;;;;;;;;;;;;-0.55;100.00;92630.47;5010095;28;19922;-76
2021/03/24 01:51:14;;;;;;;;;;;;;;;-0.56;100.00;92632.19;5010089;28;19925;-77
2021/03/24 01:53:40;;;;;;;;;;;;;;;-0.54;100.00;92627.78;5010085;28;19928;-77
2021/03/24 01:56:08;;;;;;;;;;;;;;;-0.58;100.00;92626.53;5009689;28;20298;-77
2021/03/24 01:58:34;;;;;;;;;;;;;;;-0.53;100.00;92631.09;5009881;28;19925;-77
2021/03/24 02:01:01;;;;;;;;;;;;;;;-0.82;100.00;92622.22;5009990;28;19932;-76
2021/03/24 02:03:31;;;;;;;;;;;;;;;-0.67;100.00;92617.34;5009596;28;19921;-77
2021/03/24 02:05:57;;;;;;;;;;;;;;;-0.64;100.00;92617.06;5009913;28;20023;-76
2021/03/24 02:08:26;;;;;;;;;;;;;;;-0.59;100.00;92624.16;5009923;28;20031;-76
2021/03/24 02:10:54;;;;;;;;;;;;;;;-0.53;100.00;92615.97;5009592;28;20405;-76
2021/03/24 02:13:22;;;;;;;;;;;;;;;-0.53;100.00;92610.91;5010611;28;19941;-76
2021/03/24 02:15:50;;;;;;;;;;;;;;;-0.56;100.00;92606.97;5013586;28;20434;-76
2021/03/24 02:18:17;;;;;;;;;;;;;;;-0.66;100.00;92613.13;5013296;28;20437;-76
2021/03/24 02:20:44;;;;;;;;;;;;;;;-0.67;100.00;92607.28;5013397;28;19921;-76
2021/03/24 02:23:17;;;;;;;;;;;;;;;-0.62;100.00;92605.06;5013545;28;19971;-76
2021/03/24 02:25:45;;;;;;;;;;;;;;;-0.62;100.00;92607.59;5013239;28;19936;-76
2021/03/24 02:28:14;;;;;;;;;;;;;;;-0.63;100.00;92605.22;5013483;28;19921;-76
2021/03/24 02:30:41;;;;;;;;;;;;;;;-0.68;100.00;92608.22;5013525;28;19921;-76
2021/03/24 02:33:10;;;;;;;;;;;;;;;-0.55;100.00;92603.50;5013412;28;19921;-76
2021/03/24 02:35:38;;;;;;;;;;;;;;;-0.72;100.00;92607.75;5013234;28;19921;-76
2021/03/24 02:38:06;;;;;;;;;;;;;;;-0.59;100.00;92614.88;5013101;28;19929;-76
2021/03/24 02:40:33;;;;;;;;;;;;;;;-0.49;100.00;92607.13;5013300;28;19921;-76
2021/03/24 02:43:00;;;;;;;;;;;;;;;-0.74;100.00;92606.31;5012824;28;19925;-76
2021/03/24 02:45:30;;;;;;;;;;;;;;;-0.58;100.00;92598.78;5013147;28;20334;-76
2021/03/24 02:47:58;;;;;;;;;;;;;;;-0.51;100.00;92598.16;5012681;28;19929;-76
2021/03/24 02:50:25;;;;;;;;;;;;;;;-0.61;100.00;92603.34;5013077;28;19925;-76
2021/03/24 02:52:52;;;;;;;;;;;;;;;-0.51;100.00;92595.63;5013175;28;20307;-76
2021/03/24 02:55:18;;;;;;;;;;;;;;;-0.45;100.00;92597.50;5012991;28;19922;-76
2021/03/24 02:57:45;;;;;;;;;;;;;;;-0.39;100.00;92594.34;5012767;28;19922;-76
2021/03/24 03:00:14;;;;;;;;;;;;;;;-0.42;100.00;92605.56;5012969;28;19925;-76
2021/03/24 03:02:44;;;;;;;;;;;;;;;-0.67;100.00;92592.13;5012884;28;19921;-75
2021/03/24 03:05:13;;;;;;;;;;;;;;;-0.57;100.00;92589.47;5012876;28;19925;-76
2021/03/24 03:07:41;;;;;;;;;;;;;;;-0.55;100.00;92585.06;5012587;28;19921;-75
2021/03/24 03:10:13;;;;;;;;;;;;;;;-0.52;100.00;92581.44;5012065;28;20367;-76
2021/03/24 03:12:40;;;;;;;;;;;;;;;-0.58;100.00;92583.63;5012175;28;19921;-76
2021/03/24 03:15:09;;;;;;;;;;;;;;;-0.61;100.00;92583.94;5012260;28;19921;-76
2021/03/24 03:17:38;;;;;;;;;;;;;;;-0.62;100.00;92577.31;5012092;28;19921;-78
2021/03/24 03:20:11;;;;;;;;;;;;;;;-0.58;100.00;92572.75;5011808;28;19927;-78
2021/03/24 03:22:39;;;;;;;;;;;;;;;-0.79;100.00;92584.06;5012229;28;19921;-76
2021/03/24 03:25:09;;;;;;;;;;;;;;;-0.98;100.00;92585.94;5011111;28;20324;-76
2021/03/24 03:27:35;;;;;;;;;;;;;;;-1.05;100.00;92579.94;5013184;28;19925;-77
2021/03/24 03:30:04;;;;;;;;;;;;;;;-1.03;100.00;92579.81;5012605;28;19921;-77
2021/03/24 03:32:31;;;;;;;;;;;;;;;-1.12;100.00;92587.34;5012691;28;19928;-77
2021/03/24 03:35:00;;;;;;;;;;;;;;;-1.08;100.00;92591.13;5011662;28;19971;-77
2021/03/24 03:37:31;;;;;;;;;;;;;;;-1.05;100.00;92586.72;5012250;28;20004;-77
2021/03/24 03:39:57;;;;;;;;;;;;;;;-1.03;100.00;92583.09;5011700;28;19921;-77
2021/03/24 03:42:25;;;;;;;;;;;;;;;-1.03;100.00;92588.13;5012120;28;20330;-76
2021/03/24 03:44:52;;;;;;;;;;;;;;;-0.96;100.00;92580.75;5011773;28;19928;-77
2021/03/24 03:47:19;;;;;;;;;;;;;;;-0.95;100.00;92574.75;5011626;28;20429;-77
2021/03/24 03:49:45;;;;;;;;;;;;;;;-1.00;100.00;92577.75;5012027;28;19921;-77
2021/03/24 03:52:26;;;;;;;;;;;;;;;-0.92;100.00;92571.16;5011921;28;20023;-77
2021/03/24 03:54:58;;;;;;;;;;;;;;;-0.90;100.00;92581.84;5009287;28;20015;-77
2021/03/24 03:57:28;;;;;;;;;;;;;;;-0.97;100.00;92581.69;5011849;28;20294;-77
2021/03/24 03:59:57;;;;;;;;;;;;;;;-0.93;100.00;92579.66;5011440;28;19941;-77
2021/03/24 04:02:27;;;;;;;;;;;;;;;-1.03;100.00;92588.13;5011605;28;19928;-77
2021/03/24 04:04:56;;;;;;;;;;;;;;;-1.28;100.00;92592.31;5011680;28;19925;-77
2021/03/24 04:07:25;;;;;;;;;;;;;;;-1.26;100.00;92592.94;5011346;28;19921;-77
2021/03/24 04:09:55;;;;;;;;;;;;;;;-1.16;100.00;92590.31;5011632;28;19921;-77
2021/03/24 04:12:23;;;;;;;;;;;;;;;-1.27;100.00;92589.66;5011661;28;19925;-77
2021/03/24 04:14:52;;;;;;;;;;;;;;;-1.14;100.00;92594.28;5011517;28;19929;-77
2021/03/24 04:17:22;;;;;;;;;;;;;;;-1.06;100.00;92585.94;5011099;28;19925;-77
2021/03/24 04:19:50;;;;;;;;;;;;;;;-0.99;100.00;92588.63;5011500;28;19928;-77
2021/03/24 04:22:17;;;;;;;;;;;;;;;-1.11;100.00;92588.91;5011279;28;19921;-77
2021/03/24 04:24:51;;;;;;;;;;;;;;;-0.95;100.00;92590.69;5011052;28;19921;-77
2021/03/24 04:27:18;;;;;;;;;;;;;;;-0.92;100.00;92596.34;5010824;28;19921;-76
2021/03/24 04:29:48;;;;;;;;;;;;;;;-0.81;100.00;92599.38;5011526;28;19925;-77
2021/03/24 04:32:14;;;;;;;;;;;;;;;-0.76;100.00;92596.38;5011109;28;19980;-76
2021/03/24 04:34:41;;;;;;;;;;;;;;;-0.72;100.00;92607.75;5011194;28;19925;-76
2021/03/24 04:37:11;;;;;;;;;;;;;;;-0.71;100.00;92608.53;5010735;28;20390;-76
2021/03/24 04:39:38;;;;;;;;;;;;;;;-0.63;100.00;92612.78;5010859;28;19948;-76
2021/03/24 04:42:06;;;;;;;;;;;;;;;-0.69;100.00;92607.41;5010997;28;19928;-77
2021/03/24 04:44:34;;;;;;;;;;;;;;;-0.72;100.00;92607.75;5010784;28;19921;-76
2021/03/24 04:47:11;;;;;;;;;;;;;;;-0.72;100.00;92612.78;5010650;28;19966;-76
2021/03/24 04:49:42;;;;;;;;;;;;;;;-0.84;100.00;92612.28;5011196;28;19925;-76
2021/03/24 04:52:09;;;;;;;;;;;;;;;-0.80;100.00;92617.81;5010997;28;19921;-76
2021/03/24 04:54:37;;;;;;;;;;;;;;;-0.97;100.00;92617.00;5010824;28;19948;-76
2021/03/24 04:57:05;;;;;;;;;;;;;;;-1.06;100.00;92617.91;5010798;28;20007;-76
2021/03/24 04:59:34;;;;;;;;;;;;;;;-1.06;100.00;92626.28;5010500;28;19922;-76
2021/03/24 05:02:05;;;;;;;;;;;;;;;-1.09;100.00;92629.88;5011060;28;19925;-76
2021/03/24 05:04:33;;;;;;;;;;;;;;;-1.25;100.00;92628.09;5010679;28;19926;-76
2021/03/24 05:07:03;;;;;;;;;;;;;;;-1.19;100.00;92635.97;5010237;28;19929;-75
2021/03/24 05:09:29;;;;;;;;;;;;;;;-1.35;100.00;92633.25;5010590;28;19921;-76
2021/03/24 05:12:01;;;;;;;;;;;;;;;-1.26;100.00;92630.75;5010444;28;19926;-76
2021/03/24 05:14:30;;;;;;;;;;;;;;;-1.22;100.00;92632.84;5007296;28;19980;-75
2021/03/24 05:17:02;;;;;;;;;;;;;;;-1.32;100.00;92641.44;4989033;28;20378;-76
2021/03/24 05:19:30;;;;;;;;;;;;;;;-1.42;100.00;92646.59;4989681;28;19921;-75
2021/03/24 05:22:01;;;;;;;;;;;;;;;-1.30;100.00;92652.19;4990555;28;19922;-75
2021/03/24 05:24:29;;;;;;;;;;;;;;;-1.26;100.00;92648.38;4990554;28;19928;-75
2021/03/24 05:26:59;;;;;;;;;;;;;;;-1.26;100.00;92653.44;4990414;28;19921;-75
2021/03/24 05:29:27;;;;;;;;;;;;;;;-1.19;100.00;92636.78;4990414;28;20503;-76
2021/03/24 05:31:54;;;;;;;;;;;;;;;-1.22;100.00;92632.84;4990571;28;19933;-76
2021/03/24 05:34:25;;;;;;;;;;;;;;;-1.19;100.00;92641.03;4990570;28;19922;-76
2021/03/24 05:36:51;;;;;;;;;;;;;;;-1.17;100.00;92642.44;4990525;28;19922;-76
2021/03/24 05:39:20;;;;;;;;;;;;;;;-1.23;100.00;92636.31;4990360;28;19929;-76
2021/03/24 05:41:49;;;;;;;;;;;;;;;-1.16;100.00;92641.50;4990239;28;19926;-76
2021/03/24 05:44:36;;;;;;;;;;;;;;;-1.16;100.00;92640.72;4990009;28;20012;-76
2021/03/24 05:47:21;;;;;;;;;;;;;;;-1.17;100.00;92650.00;4990461;28;19929;-76
2021/03/24 05:49:51;;;;;;;;;;;;;;;-1.16;100.00;92658.38;4989945;28;19925;-77
2021/03/24 05:52:23;;;;;;;;;;;;;;;-1.18;100.00;92668.59;5007014;28;20295;-77
2021/03/24 05:54:55;;;;;;;;;;;;;;;-1.18;100.00;92680.41;5009972;28;19932;-76
2021/03/24 05:57:35;;;;;;;;;;;;;;;-1.14;100.00;92666.56;5009966;28;19932;-76
2021/03/24 06:00:17;;;;;;;;;;;;;;;-1.21;100.00;92673.94;5007534;28;20299;-76
2021/03/24 06:02:47;;;;;;;;;;;;;;;-1.13;100.00;92676.50;5009476;28;20342;-76
2021/03/24 06:05:17;;;;;;;;;;;;;;;-1.18;100.00;92685.44;5009731;28;19922;-76
2021/03/24 06:08:04;;;;;;;;;;;;;;;-1.18;100.00;92691.28;5008761;28;19925;-76
2021/03/24 06:10:48;;;;;;;;;;;;;;;-1.11;100.00;92691.47;5009476;28;19928;-75
2021/03/24 06:13:29;;;;;;;;;;;;;;;-0.91;100.00;92693.75;4999472;28;20428;-76
2021/03/24 06:16:00;;;;;;;;;;;;;;;-0.90;100.00;92687.75;5008875;28;19922;-76
2021/03/24 06:18:36;;;;;;;;;;;;;;;-0.99;100.00;92699.53;5009693;28;19928;-76
2021/03/24 06:21:06;;;;;;;;;;;;;;;-1.00;100.00;92708.84;5009702;28;19988;-77
2021/03/24 06:23:38;;;;;;;;;;;;;;;-0.97;100.00;92711.06;5009491;28;19922;-75
2021/03/24 06:26:10;;;;;;;;;;;;;;;-0.86;100.00;92707.47;5009335;28;19985;-75
2021/03/24 06:28:42;;;;;;;;;;;;;;;-0.82;100.00;92707.97;5009222;28;19929;-75
2021/03/24 06:31:29;;;;;;;;;;;;;;;-0.86;100.00;92715.06;5009290;28;20024;-75
2021/03/24 06:34:22;;;;;;;;;;;;;;;-0.87;100.00;92728.59;5009448;28;20306;-75
2021/03/24 06:37:09;;;;;;;;;;;;;;;-0.90;100.00;92728.91;4974160;28;19921;-75
2021/03/24 06:39:49;;;;;;;;;;;;;;;-0.92;100.00;92720.69;5004096;28;20418;-75
2021/03/24 06:42:37;;;;;;;;;;;;;;;-0.81;100.00;92733.03;5006598;28;19925;-75
2021/03/24 06:45:13;;;;;;;;;;;;;;;-0.76;100.00;92727.53;5004506;28;19922;-75
2021/03/24 06:47:48;;;;;;;;;;;;;;;-0.72;100.00;92740.63;5009265;28;19973;-75
2021/03/24 06:50:22;;;;;;;;;;;;;;;-0.82;100.00;92745.78;5009350;28;19925;-75
2021/03/24 06:53:18;;;;;;;;;;;;;;;-0.76;100.00;92744.38;5009114;28;19925;-75
2021/03/24 06:56:09;;;;;;;;;;;;;;;-0.87;100.00;92753.03;4948573;29;19966;-75
2021/03/24 06:58:59;;;;;;;;;;;;;;;-0.97;100.00;92753.91;5005266;28;19925;-76
2021/03/24 07:01:40;;;;;;;;;;;;;;;-0.99;100.00;92755.81;5011618;28;20330;-76
2021/03/24 07:04:21;;;;;;;;;;;;;;;-0.82;100.00;92776.81;5012784;28;19921;-76
2021/03/24 07:07:07;;;;;;;;;;;;;;;-0.70;100.00;92764.75;4978851;28;19937;-75
2021/03/24 07:09:38;;;;;;;;;;;;;;;-0.70;100.00;92769.78;5012758;28;19929;-77
2021/03/24 07:12:13;;;;;;;;;;;;;;;-0.74;100.00;92763.47;5012723;28;20325;-76
2021/03/24 07:15:00;;;;;;;;;;;;;;;-0.90;100.00;92786.88;5012349;28;19921;-76
2021/03/24 07:17:37;;;;;;;;;;;;;;;-0.70;100.00;92787.44;5012656;28;20305;-76
2021/03/24 07:20:38;;;;;;;;;;;;;;;-0.66;100.00;92794.72;5012482;28;19926;-75
2021/03/24 07:23:18;;;;;;;;;;;;;;;-0.79;100.00;92793.38;5012527;28;19955;-75
2021/03/24 07:25:46;;;;;;;;;;;;;;;-1.12;100.00;92796.53;5012167;28;19922;-75
2021/03/24 07:28:27;;;;;;;;;;;;;;;-1.62;100.00;92806.28;5012149;28;19921;-75
2021/03/24 07:31:12;;;;;;;;;;;;;;;-1.66;100.00;92806.72;5012419;28;19926;-76
2021/03/24 07:33:45;;;;;;;;;;;;;;;-1.85;100.00;92823.53;5012187;28;19921;-76
2021/03/24 07:36:32;;;;;;;;;;;;;;;-1.96;100.00;92833.81;5012329;28;19925;-75
2021/03/24 07:39:07;;;;;;;;;;;;;;;-2.32;100.00;92832.06;4986562;28;19921;-76
2021/03/24 07:41:51;;;;;;;;;;;;;;;-2.02;100.00;92830.16;5012245;28;19929;-75
2021/03/24 07:44:35;;;;;;;;;;;;;;;-2.11;98.70;92849.41;5011776;28;19921;-76
2021/03/24 07:47:31;;;;;;;;;;;;;;;-2.21;97.86;92852.00;5011654;28;19925;-75
2021/03/24 07:50:01;;;;;;;;;;;;;;;-2.11;100.00;92854.44;5011705;28;19928;-75
2021/03/24 07:52:35;;;;;;;;;;;;;;;-2.02;98.52;92867.91;4320128;28;20001481;-75
2021/03/24 07:55:05;;;;;;;;;;;;;;;-2.21;98.86;92863.78;5011744;28;19922;-75
2021/03/24 07:57:38;;;;;;;;;;;;;;;-1.94;100.00;92867.97;5011805;28;19932;-78
2021/03/24 08:00:07;;;;;;;;;;;;;;;-2.29;100.00;92882.88;5011506;28;19922;-79
2021/03/24 08:02:51;;;;;;;;;;;;;;;-2.64;100.00;92886.84;5011903;28;19929;-77
2021/03/24 08:05:27;;;;;;;;;;;;;;;-2.47;100.00;92892.06;5011910;28;20334;-77
2021/03/24 08:08:00;;;;;;;;;;;;;;;-2.42;100.00;92902.50;5011782;28;20367;-77
2021/03/24 08:10:33;;;;;;;;;;;;;;;-2.11;100.00;92898.94;5010981;28;20452;-77
2021/03/24 08:13:14;;;;;;;;;;;;;;;-2.32;100.00;92897.47;5011395;28;19925;-77
2021/03/24 08:15:54;;;;;;;;;;;;;;;-2.11;100.00;92901.47;4978573;28;19921;-77
2021/03/24 08:18:23;;;;;;;;;;;;;;;-2.16;100.00;92910.22;5011308;28;20402;-77
2021/03/24 08:21:00;;;;;;;;;;;;;;;-2.00;100.00;92906.31;5011216;28;19921;-78
2021/03/24 08:23:36;;;;;;;;;;;;;;;-1.79;100.00;92910.31;5011105;28;19975;-78
2021/03/24 08:26:09;;;;;;;;;;;;;;;-1.69;100.00;92911.03;5011176;28;19932;-78
2021/03/24 08:28:41;;;;;;;;;;;;;;;-1.08;100.00;92916.31;5004900;28;19929;-78
2021/03/24 08:31:26;;;;;;;;;;;;;;;-0.68;100.00;92914.19;5009175;28;20314;-77
2021/03/24 08:33:55;;;;;;;;;;;;;;;-0.26;100.00;92919.50;5010940;28;19945;-77
2021/03/24 08:36:36;;;;;;;;;;;;;;;-0.45;98.72;92920.50;5010882;28;20378;-76
2021/03/24 08:39:10;;;;;;;;;;;;;;;-1.02;95.75;92927.53;5010852;28;19925;-76
2021/03/24 08:41:50;;;;;;;;;;;;;;;-1.13;99.82;92918.47;5010737;28;19967;-76
2021/03/24 08:44:21;;;;;;;;;;;;;;;-1.31;98.39;92930.28;5010827;28;19951;-76
2021/03/24 08:46:52;;;;;;;;;;;;;;;-1.19;95.97;92921.56;5010892;28;20294;-76
2021/03/24 08:49:19;;;;;;;;;;;;;;;-1.50;94.80;92920.19;5010758;28;19944;-76
2021/03/24 08:51:53;;;;;;;;;;;;;;;-1.03;96.18;92925.94;5010878;28;19921;-76
2021/03/24 08:54:37;;;;;;;;;;;;;;;-0.63;94.41;92926.38;5010836;28;19929;-76
2021/03/24 08:57:09;;;;;;;;;;;;;;;-0.56;92.31;92932.41;5010425;28;19928;-76
2021/03/24 08:59:37;;;;;;;;;;;;;;;-0.60;93.10;92922.78;5010577;28;19928;-76
2021/03/24 09:02:17;;;;;;;;;;;;;;;-0.61;91.07;92924.50;5010642;28;20302;-76
2021/03/24 09:05:00;;;;;;;;;;;;;;;-1.02;93.66;92926.75;5010356;28;19925;-76
2021/03/24 09:07:34;;;;;;;;;;;;;;;-0.76;92.13;92925.97;5010480;28;19921;-76
2021/03/24 09:10:10;;;;;;;;;;;;;;;-0.83;92.12;92923.25;5010488;28;19921;-76
2021/03/24 09:12:38;;;;;;;;;;;;;;;-0.69;92.48;92916.88;5010198;28;20424;-76
2021/03/24 09:15:06;;;;;;;;;;;;;;;-0.38;91.59;92921.47;5010307;28;19928;-77
2021/03/24 09:17:45;;;;;;;;;;;;;;;-0.03;92.75;92907.13;5010064;28;19921;-76
2021/03/24 09:20:23;;;;;;;;;;;;;;;0.30;88.07;92921.59;5010199;28;19921;-76
2021/03/24 09:22:58;;;;;;;;;;;;;;;0.47;89.36;92927.44;5009670;28;19921;-76
2021/03/24 09:25:26;;;;;;;;;;;;;;;1.03;86.96;92923.56;5009304;28;19936;-76
2021/03/24 09:28:10;;;;;;;;;;;;;;;1.24;87.24;92933.22;5009618;28;19921;-77
2021/03/24 09:30:45;;;;;;;;;;;;;;;0.92;83.37;92935.59;5009823;28;19925;-76
2021/03/24 09:33:28;;;;;;;;;;;;;;;0.41;80.72;92940.72;5010153;28;20397;-77
2021/03/24 09:36:04;;;;;;;;;;;;;;;0.01;83.65;92949.75;5009395;28;19926;-78
2021/03/24 09:38:34;;;;;;;;;;;;;;;-0.12;85.58;92932.47;5010097;28;19929;-76
2021/03/24 09:41:10;;;;;;;;;;;;;;;0.09;85.90;92932.09;5009769;28;19925;-77
2021/03/24 09:43:38;;;;;;;;;;;;;;;0.11;89.21;92925.16;5009601;28;19921;-77
2021/03/24 09:46:06;;;;;;;;;;;;;;;-0.06;86.39;92936.91;5010073;28;19921;-76
2021/03/24 09:48:43;;;;;;;;;;;;;;;-0.02;88.79;92926.38;5009874;28;19968;-77
2021/03/24 09:51:20;;;;;;;;;;;;;;;-0.72;86.41;92929.78;5010000;28;20290;-76
2021/03/24 09:53:47;;;;;;;;;;;;;;;-0.72;87.86;92935.63;5008963;28;19929;-77
2021/03/24 09:56:34;;;;;;;;;;;;;;;-0.73;89.51;92943.34;5010513;28;19926;-77
2021/03/24 09:59:06;;;;;;;;;;;;;;;-1.26;90.58;92938.19;5009710;28;19928;-77
2021/03/24 10:01:38;;;;;;;;;;;;;;;-0.70;91.46;92935.47;5009918;28;19922;-76
2021/03/24 10:04:11;;;;;;;;;;;;;;;-0.86;85.97;92938.66;5009774;28;19922;-76
2021/03/24 10:06:42;;;;;;;;;;;;;;;-0.99;85.46;92942.38;5009658;28;19921;-76
2021/03/24 10:09:16;;;;;;;;;;;;;;;-0.97;84.91;92947.28;5009961;28;19929;-76
2021/03/24 10:11:47;;;;;;;;;;;;;;;-0.27;84.88;92943.94;5009765;28;19944;-76
2021/03/24 10:14:17;;;;;;;;;;;;;;;-0.01;82.90;92935.53;5009678;28;19972;-77
2021/03/24 10:16:45;;;;;;;;;;;;;;;0.20;79.42;92938.59;5009405;28;19926;-77
2021/03/24 10:19:16;;;;;;;;;;;;;;;0.58;83.60;92933.97;5009689;28;19922;-76
2021/03/24 10:21:47;;;;;;;;;;;;;;;0.96;78.40;92937.81;5009792;28;20109;-76
2021/03/24 10:24:16;;;;;;;;;;;;;;;0.54;79.51;92932.69;5009314;28;20117;-76
2021/03/24 10:26:46;;;;;;;;;;;;;;;0.07;82.50;92929.72;5009180;28;19937;-76
2021/03/24 10:29:14;;;;;;;;;;;;;;;-0.30;85.01;92934.16;5009709;28;19928;-77
2021/03/24 10:31:41;;;;;;;;;;;;;;;-0.48;86.97;92951.06;5009372;28;20371;-77
2021/03/24 10:34:10;;;;;;;;;;;;;;;-0.97;86.94;92944.75;5008426;28;20306;-77
2021/03/24 10:36:38;;;;;;;;;;;;;;;-0.68;88.60;92941.16;5000803;28;19946;-76
2021/03/24 10:39:07;;;;;;;;;;;;;;;-0.88;86.51;92948.91;5002315;28;19929;-77
2021/03/24 10:41:45;;;;;;;;;;;;;;;-1.13;85.98;92945.38;5002365;28;19922;-77
2021/03/24 10:44:16;;;;;;;;;;;;;;;-1.01;86.59;92949.28;4996098;28;19921;-77
2021/03/24 10:46:47;;;;;;;;;;;;;;;-0.28;88.78;92954.97;4993187;28;19926;-77
2021/03/24 10:49:17;;;;;;;;;;;;;;;-1.03;86.69;92955.41;4993276;28;19922;-76
2021/03/24 10:51:50;;;;;;;;;;;;;;;-0.37;87.06;92972.75;4993449;28;19928;-77
2021/03/24 10:54:19;;;;;;;;;;;;;;;-0.76;87.42;92961.28;4993076;28;19936;-77
2021/03/24 10:57:02;;;;;;;;;;;;;;;-1.21;90.48;92958.72;4993375;28;20276;-76
2021/03/24 10:59:32;;;;;;;;;;;;;;;-1.54;93.48;92976.84;4993435;28;20301;-77
2021/03/24 11:02:03;;;;;;;;;;;;;;;-1.69;95.69;92960.59;4993145;28;19944;-77
2021/03/24 11:04:44;;;;;;;;;;;;;;;-1.58;97.78;92957.91;4978438;28;19921;-76
2021/03/24 11:07:13;;;;;;;;;;;;;;;-1.20;93.52;92955.28;5001975;28;19928;-76
2021/03/24 11:09:43;;;;;;;;;;;;;;;-1.27;92.59;92957.56;5028217;28;19925;-76
2021/03/24 11:12:12;;;;;;;;;;;;;;;-0.91;93.60;92959.28;5022657;28;19921;-76
2021/03/24 11:14:42;;;;;;;;;;;;;;;-0.44;90.14;92970.00;5037077;28;19931;-76
2021/03/24 11:17:10;;;;;;;;;;;;;;;-1.01;87.04;92974.50;5032551;28;19928;-77
2021/03/24 11:19:37;;;;;;;;;;;;;;;-1.14;83.79;92982.44;5026567;28;19921;-76
2021/03/24 11:22:08;;;;;;;;;;;;;;;-0.66;84.16;92976.34;5028389;28;19925;-76
2021/03/24 11:24:42;;;;;;;;;;;;;;;-0.45;78.48;92979.34;5014059;28;19979;-76
2021/03/24 11:27:18;;;;;;;;;;;;;;;-0.36;77.09;92984.41;5008386;28;19925;-76
2021/03/24 11:29:48;;;;;;;;;;;;;;;-0.59;74.73;92980.66;5009666;28;19929;-77
2021/03/24 11:32:32;;;;;;;;;;;;;;;-0.49;73.76;92980.56;5005974;28;19925;-77
2021/03/24 11:35:04;;;;;;;;;;;;;;;-0.44;72.05;92964.97;5026437;28;19921;-77
2021/03/24 11:37:37;;;;;;;;;;;;;;;-0.05;71.22;92958.72;5029133;28;19921;-76
2021/03/24 11:40:07;;;;;;;;;;;;;;;-0.50;69.99;92961.31;5028683;28;19925;-77
2021/03/24 11:42:36;;;;;;;;;;;;;;;-0.20;68.04;92955.94;5027843;28;20297;-77
2021/03/24 11:45:08;;;;;;;;;;;;;;;-0.39;69.97;92947.66;5027802;28;19928;-76
2021/03/24 11:47:45;;;;;;;;;;;;;;;-0.17;70.07;92961.50;5005121;28;20338;-77
2021/03/24 11:50:14;;;;;;;;;;;;;;;-0.69;71.85;92942.13;5007787;28;19956;-76
2021/03/24 11:52:44;;;;;;;;;;;;;;;-0.55;71.79;92940.78;5025464;28;20271;-77
2021/03/24 11:55:30;;;;;;;;;;;;;;;-0.30;69.50;92946.75;5029646;28;19947;-76
2021/03/24 11:58:02;;;;;;;;;;;;;;;-0.06;68.41;92959.63;5028981;28;19925;-77
2021/03/24 12:00:32;;;;;;;;;;;;;;;-0.23;66.62;92946.16;5019384;28;20015;-77
2021/03/24 12:03:03;;;;;;;;;;;;;;;-0.41;65.88;92957.88;5000079;28;19931;-77
2021/03/24 12:05:31;;;;;;;;;;;;;;;-0.50;68.34;92952.94;5010502;28;19929;-76
2021/03/24 12:08:07;;;;;;;;;;;;;;;-0.56;65.96;92962.69;5008688;28;20284;-77
2021/03/24 12:10:34;;;;;;;;;;;;;;;-0.32;66.70;92955.44;5006396;28;19928;-77
2021/03/24 12:13:09;;;;;;;;;;;;;;;-0.58;64.93;92962.06;5011885;28;19925;-77
2021/03/24 12:15:36;;;;;;;;;;;;;;;-0.38;65.41;92951.75;5029100;28;20325;-77
2021/03/24 12:18:09;;;;;;;;;;;;;;;-0.23;65.15;92951.97;5019797;28;19921;-76
2021/03/24 12:20:45;;;;;;;;;;;;;;;-0.17;65.08;92948.09;5044980;28;19924;-77
2021/03/24 12:23:12;;;;;;;;;;;;;;;-0.06;63.95;92952.06;5028718;28;19921;-76
2021/03/24 12:25:43;;;;;;;;;;;;;;;-0.07;66.28;92943.72;5028079;28;19928;-76
2021/03/24 12:28:11;;;;;;;;;;;;;;;0.10;65.57;92957.19;5025811;28;19967;-77
2021/03/24 12:30:43;;;;;;;;;;;;;;;-0.15;65.66;92957.09;5028761;28;19927;-77
2021/03/24 12:33:22;;;;;;;;;;;;;;;0.05;65.76;92949.28;5030709;28;20027;-77
2021/03/24 12:35:49;;;;;;;;;;;;;;;-0.36;65.03;92954.13;5020779;28;19928;-77
2021/03/24 12:38:17;;;;;;;;;;;;;;;-0.16;64.44;92942.88;5029273;28;19929;-77
2021/03/24 12:40:48;;;;;;;;;;;;;;;-0.09;66.00;92944.81;5030988;28;19928;-77
2021/03/24 12:43:19;;;;;;;;;;;;;;;-0.29;59.02;92945.81;5030325;28;19936;-77
2021/03/24 12:45:45;;;;;;;;;;;;;;;0.16;64.12;92934.78;5030486;28;19921;-78
2021/03/24 12:48:13;;;;;;;;;;;;;;;0.16;62.81;92943.16;5017082;28;19932;-78
2021/03/24 12:50:57;;;;;;;;;;;;;;;-0.04;61.54;92943.41;5010982;28;20289;-78
2021/03/24 12:53:26;;;;;;;;;;;;;;;0.12;60.77;92942.69;5010839;28;19926;-77
2021/03/24 12:55:59;;;;;;;;;;;;;;;0.11;56.89;92952.94;5010817;28;20333;-78
2021/03/24 12:58:35;;;;;;;;;;;;;;;-0.21;55.29;92942.53;5010654;28;19952;-78
2021/03/24 13:01:09;;;;;;;;;;;;;;;-0.32;54.69;92945.34;5010681;28;19932;-79
2021/03/24 13:03:45;;;;;;;;;;;;;;;-0.47;59.49;92952.66;5010201;28;20318;-78